createdAt,value
2024-05-09T00:01:58.399Z,15.40
2024-05-09T00:04:30.533Z,15.40
2024-05-09T00:07:02.701Z,15.40
2024-05-09T00:09:34.774Z,15.50
2024-05-09T00:12:07.051Z,15.50
2024-05-09T00:14:39.226Z,15.50
2024-05-09T00:17:11.355Z,15.50
2024-05-09T00:19:44.060Z,15.40
2024-05-09T00:22:16.138Z,15.30
2024-05-09T00:24:48.233Z,15.50
2024-05-09T00:27:20.962Z,15.50
2024-05-09T00:29:53.173Z,15.50
2024-05-09T00:32:25.465Z,15.50
2024-05-09T00:34:57.701Z,15.40
2024-05-09T00:37:29.805Z,15.30
2024-05-09T00:40:01.876Z,15.20
2024-05-09T00:42:38.526Z,15.20
2024-05-09T00:45:10.550Z,15.20
2024-05-09T00:47:45.802Z,15.10
2024-05-09T00:50:22.778Z,15.10
2024-05-09T00:53:02.043Z,15.20
2024-05-09T00:55:35.619Z,15.20
2024-05-09T00:58:10.799Z,15.20
2024-05-09T01:00:44.011Z,15.30
2024-05-09T01:03:16.337Z,15.30
2024-05-09T01:05:48.507Z,15.30
2024-05-09T01:08:21.041Z,15.40
2024-05-09T01:10:53.486Z,15.30
2024-05-09T01:13:25.659Z,15.30
2024-05-09T01:15:58.343Z,15.30
2024-05-09T01:18:30.678Z,15.30
2024-05-09T01:21:04.406Z,15.40
2024-05-09T01:23:36.743Z,15.30
2024-05-09T01:26:08.937Z,15.20
2024-05-09T01:28:41.013Z,15.20
2024-05-09T01:31:15.970Z,15.20
2024-05-09T01:33:48.270Z,15.20
2024-05-09T01:36:20.489Z,15.20
2024-05-09T01:38:52.660Z,15.20
2024-05-09T01:41:25.144Z,15.30
2024-05-09T01:43:57.375Z,15.30
2024-05-09T01:46:29.476Z,15.40
2024-05-09T01:49:01.664Z,15.50
2024-05-09T01:51:33.847Z,15.40
2024-05-09T01:54:06.497Z,15.40
2024-05-09T01:56:38.695Z,15.40
2024-05-09T01:59:10.806Z,15.40
2024-05-09T02:01:56.239Z,15.50
2024-05-09T02:04:30.909Z,15.50
2024-05-09T02:07:03.173Z,15.50
2024-05-09T02:09:35.251Z,15.50
2024-05-09T02:12:07.584Z,15.40
2024-05-09T02:14:39.794Z,15.40
2024-05-09T02:17:11.954Z,15.40
2024-05-09T02:19:44.100Z,15.40
2024-05-09T02:22:16.322Z,15.40
2024-05-09T02:24:48.352Z,15.40
2024-05-09T02:27:20.407Z,15.40
2024-05-09T02:29:52.515Z,15.30
2024-05-09T02:32:24.790Z,15.30
2024-05-09T02:34:56.981Z,15.30
2024-05-09T02:37:29.197Z,15.20
2024-05-09T02:40:01.257Z,15.30
2024-05-09T02:42:33.558Z,15.40
2024-05-09T02:45:05.976Z,15.40
2024-05-09T02:47:38.263Z,15.40
2024-05-09T02:50:13.340Z,15.30
2024-05-09T02:52:48.205Z,15.20
2024-05-09T02:55:20.300Z,15.30
2024-05-09T02:57:52.384Z,15.40
2024-05-09T03:00:34.162Z,15.40
2024-05-09T03:03:14.038Z,15.40
2024-05-09T03:05:47.808Z,15.40
2024-05-09T03:08:20.106Z,15.30
2024-05-09T03:10:52.277Z,15.30
2024-05-09T03:13:24.499Z,15.40
2024-05-09T03:15:56.524Z,15.40
2024-05-09T03:18:28.902Z,15.50
2024-05-09T03:21:01.248Z,15.50
2024-05-09T03:23:33.652Z,15.50
2024-05-09T03:26:13.662Z,15.30
2024-05-09T03:28:46.120Z,15.30
2024-05-09T03:31:18.910Z,15.30
2024-05-09T03:33:51.177Z,15.30
2024-05-09T03:36:23.418Z,15.30
2024-05-09T03:38:55.599Z,15.30
2024-05-09T03:41:27.792Z,15.10
2024-05-09T03:43:59.992Z,15.10
2024-05-09T03:46:32.075Z,15.10
2024-05-09T03:49:04.356Z,15.10
2024-05-09T03:51:36.494Z,15.00
2024-05-09T03:54:08.627Z,15.00
2024-05-09T03:56:40.736Z,15.00
2024-05-09T03:59:12.969Z,15.00
2024-05-09T04:01:45.369Z,15.00
2024-05-09T04:04:17.542Z,15.00
2024-05-09T04:06:49.652Z,15.00
2024-05-09T04:09:21.863Z,15.00
2024-05-09T04:11:54.096Z,15.00
2024-05-09T04:14:26.414Z,15.00
2024-05-09T04:16:58.608Z,15.10
2024-05-09T04:19:30.754Z,15.10
2024-05-09T04:22:02.915Z,15.00
2024-05-09T04:24:34.978Z,15.00
2024-05-09T04:27:07.099Z,14.90
2024-05-09T04:29:40.571Z,14.90
2024-05-09T04:32:12.856Z,14.80
2024-05-09T04:34:45.119Z,14.90
2024-05-09T04:37:17.581Z,14.90
2024-05-09T04:39:49.747Z,15.00
2024-05-09T04:42:21.785Z,15.10
2024-05-09T04:44:56.424Z,15.10
2024-05-09T04:47:30.623Z,15.20
2024-05-09T04:50:03.520Z,15.30
2024-05-09T04:52:35.717Z,15.40
2024-05-09T04:55:07.881Z,15.40
2024-05-09T04:57:40.051Z,15.50
2024-05-09T05:00:14.946Z,15.50
2024-05-09T05:02:54.030Z,15.50
2024-05-09T05:05:26.220Z,15.60
2024-05-09T05:07:58.408Z,15.70
2024-05-09T05:10:35.793Z,15.60
2024-05-09T05:13:25.230Z,15.70
2024-05-09T05:15:58.358Z,15.80
2024-05-09T05:18:30.995Z,16.00
2024-05-09T05:21:03.098Z,16.10
2024-05-09T05:23:36.346Z,16.20
2024-05-09T05:26:08.571Z,16.20
2024-05-09T05:28:40.763Z,16.20
2024-05-09T05:31:13.025Z,16.30
2024-05-09T05:33:45.246Z,16.40
2024-05-09T05:36:17.438Z,16.50
2024-05-09T05:38:49.663Z,16.60
2024-05-09T05:41:21.871Z,16.80
2024-05-09T05:43:54.065Z,16.90
2024-05-09T05:46:26.114Z,17.10
2024-05-09T05:48:58.290Z,17.30
2024-05-09T05:51:30.423Z,17.40
2024-05-09T05:54:02.544Z,17.60
2024-05-09T05:56:34.682Z,17.80
2024-05-09T05:59:06.903Z,17.90
2024-05-09T06:01:39.103Z,17.90
2024-05-09T06:04:11.257Z,18.00
2024-05-09T06:06:43.341Z,18.10
2024-05-09T06:09:15.488Z,18.30
2024-05-09T06:11:47.681Z,18.60
2024-05-09T06:14:19.905Z,18.80
2024-05-09T06:16:53.479Z,19.10
2024-05-09T06:19:26.905Z,19.50
2024-05-09T06:21:59.280Z,19.70
2024-05-09T06:24:31.374Z,20.00
2024-05-09T06:27:04.166Z,20.30
2024-05-09T06:29:38.528Z,20.80
2024-05-09T06:32:10.761Z,21.30
2024-05-09T06:34:43.229Z,21.70
2024-05-09T06:37:15.352Z,22.00
2024-05-09T06:39:47.426Z,22.20
2024-05-09T06:42:19.530Z,22.40
2024-05-09T06:44:51.656Z,22.60
2024-05-09T06:47:23.798Z,22.50
2024-05-09T06:49:56.106Z,22.60
2024-05-09T06:52:28.220Z,22.90
2024-05-09T06:55:00.279Z,23.00
2024-05-09T06:57:32.349Z,23.30
2024-05-09T07:00:08.224Z,23.40
2024-05-09T07:02:42.459Z,23.50
2024-05-09T07:05:14.843Z,23.40
2024-05-09T07:07:47.056Z,23.40
2024-05-09T07:10:28.320Z,23.60
2024-05-09T07:13:12.278Z,24.00
2024-05-09T07:15:44.716Z,24.00
2024-05-09T07:18:21.203Z,23.40
2024-05-09T07:20:53.467Z,23.30
2024-05-09T07:23:25.589Z,23.70
2024-05-09T07:25:58.306Z,23.80
2024-05-09T07:28:30.423Z,24.00
2024-05-09T07:31:02.567Z,24.40
2024-05-09T07:33:34.749Z,24.60
2024-05-09T07:36:07.183Z,24.80
2024-05-09T07:38:39.393Z,24.80
2024-05-09T07:41:11.605Z,24.90
2024-05-09T07:43:44.488Z,25.20
2024-05-09T07:47:14.257Z,25.70
2024-05-09T07:54:18.805Z,25.80
2024-05-09T07:56:51.227Z,25.70
2024-05-09T07:59:23.459Z,25.50
2024-05-09T08:01:55.574Z,25.50
2024-05-09T08:04:27.792Z,25.70
2024-05-09T08:06:59.926Z,26.00
2024-05-09T08:09:32.132Z,26.20
2024-05-09T08:12:04.377Z,26.40
2024-05-09T08:14:36.456Z,26.20
2024-05-09T08:17:08.659Z,26.10
2024-05-09T08:19:42.113Z,26.20
2024-05-09T08:22:15.120Z,26.50
2024-05-09T08:24:47.473Z,26.90
2024-05-09T08:27:19.581Z,27.10
2024-05-09T08:29:51.813Z,26.60
2024-05-09T08:32:23.962Z,26.10
2024-05-09T08:35:02.334Z,26.20
2024-05-09T08:37:38.729Z,26.30
2024-05-09T08:40:23.643Z,26.00
2024-05-09T08:43:06.571Z,26.40
2024-05-09T08:45:44.747Z,26.60
2024-05-09T08:48:19.762Z,26.90
2024-05-09T08:50:53.468Z,27.00
2024-05-09T08:53:25.810Z,27.30
2024-05-09T08:56:01.554Z,27.60
2024-05-09T08:58:36.666Z,27.90
2024-05-09T09:01:09.617Z,27.90
2024-05-09T09:03:43.792Z,27.70
2024-05-09T09:06:19.058Z,27.10
2024-05-09T09:08:53.470Z,26.30
2024-05-09T09:11:25.619Z,25.90
2024-05-09T09:13:57.821Z,26.10
2024-05-09T09:16:37.190Z,26.40
2024-05-09T09:19:09.469Z,26.40
2024-05-09T09:21:42.797Z,26.50
2024-05-09T09:24:15.098Z,26.40
2024-05-09T09:26:47.636Z,26.60
2024-05-09T09:29:21.002Z,26.60
2024-05-09T09:32:04.075Z,26.30
2024-05-09T09:34:36.758Z,26.80
2024-05-09T09:37:11.232Z,27.30
2024-05-09T09:39:49.050Z,27.60
2024-05-09T09:42:24.003Z,27.70
2024-05-09T09:45:04.447Z,27.70
2024-05-09T09:47:40.572Z,27.50
2024-05-09T09:50:17.205Z,26.80
2024-05-09T09:52:56.391Z,26.80
2024-05-09T09:55:29.094Z,27.20
2024-05-09T09:58:01.536Z,27.40
2024-05-09T10:00:34.426Z,27.20
2024-05-09T10:03:06.930Z,27.00
2024-05-09T10:05:42.163Z,27.00
2024-05-09T10:08:18.261Z,27.00
2024-05-09T10:10:50.758Z,27.30
2024-05-09T10:13:33.684Z,27.60
2024-05-09T10:16:11.195Z,26.90
2024-05-09T10:18:43.555Z,26.10
2024-05-09T10:21:19.971Z,25.50
2024-05-09T10:24:05.355Z,25.50
2024-05-09T10:26:38.361Z,25.20
2024-05-09T10:29:17.724Z,25.20
2024-05-09T10:31:50.273Z,25.40
2024-05-09T10:34:24.094Z,25.60
2024-05-09T10:36:56.786Z,25.80
2024-05-09T10:39:36.123Z,25.90
2024-05-09T10:42:10.409Z,26.00
2024-05-09T10:44:42.839Z,26.30
2024-05-09T10:47:19.343Z,26.20
2024-05-09T10:49:51.876Z,26.60
2024-05-09T10:52:26.321Z,26.70
2024-05-09T10:55:02.279Z,26.60
2024-05-09T10:57:40.374Z,25.90
2024-05-09T11:00:19.436Z,25.50
2024-05-09T11:02:59.620Z,25.50
2024-05-09T11:05:34.046Z,25.30
2024-05-09T11:08:06.603Z,25.20
2024-05-09T11:10:39.515Z,25.20
2024-05-09T11:13:11.900Z,25.00
2024-05-09T11:15:44.214Z,24.80
2024-05-09T11:18:25.577Z,24.50
2024-05-09T11:20:59.073Z,24.50
2024-05-09T11:23:31.504Z,24.60
2024-05-09T11:26:03.989Z,24.60
2024-05-09T11:28:36.254Z,24.50
2024-05-09T11:31:10.426Z,24.40
2024-05-09T11:33:46.903Z,24.30
2024-05-09T11:36:19.292Z,24.20
2024-05-09T11:38:51.398Z,24.00
2024-05-09T11:41:24.229Z,24.00
2024-05-09T11:43:57.963Z,24.00
2024-05-09T11:46:30.089Z,24.10
2024-05-09T11:49:02.534Z,24.20
2024-05-09T11:51:34.871Z,24.00
2024-05-09T11:54:06.924Z,23.80
2024-05-09T11:56:39.057Z,23.90
2024-05-09T11:59:11.600Z,23.90
2024-05-09T12:01:43.890Z,24.10
2024-05-09T12:04:16.346Z,23.90
2024-05-09T12:06:48.674Z,23.90
2024-05-09T12:09:21.261Z,23.90
2024-05-09T12:11:53.793Z,23.80
2024-05-09T12:14:25.994Z,23.80
2024-05-09T12:17:00.229Z,23.80
2024-05-09T12:19:35.680Z,23.70
2024-05-09T12:22:07.972Z,23.70
2024-05-09T12:24:40.126Z,23.70
2024-05-09T12:27:13.968Z,23.70
2024-05-09T12:29:46.634Z,23.70
2024-05-09T12:32:18.924Z,23.80
2024-05-09T12:34:51.051Z,23.90
2024-05-09T12:37:23.157Z,24.10
2024-05-09T12:39:55.392Z,24.10
2024-05-09T12:42:31.355Z,24.10
2024-05-09T12:45:06.011Z,24.10
2024-05-09T12:47:38.371Z,23.90
2024-05-09T12:50:21.766Z,24.00
2024-05-09T12:52:57.289Z,23.90
2024-05-09T12:55:33.882Z,24.10
2024-05-09T12:58:13.800Z,24.30
2024-05-09T13:00:46.576Z,24.50
2024-05-09T13:03:19.374Z,24.50
2024-05-09T13:05:52.104Z,24.50
2024-05-09T13:08:24.361Z,24.80
2024-05-09T13:10:56.641Z,25.00
2024-05-09T13:13:29.373Z,25.20
2024-05-09T13:16:01.580Z,25.20
2024-05-09T13:18:35.973Z,25.10
2024-05-09T13:21:08.168Z,25.00
2024-05-09T13:23:40.264Z,25.10
2024-05-09T13:26:12.494Z,25.30
2024-05-09T13:28:44.713Z,25.30
2024-05-09T13:31:16.874Z,25.30
2024-05-09T13:33:49.102Z,25.40
2024-05-09T13:36:21.454Z,25.20
2024-05-09T13:38:53.764Z,25.00
2024-05-09T13:41:25.901Z,25.10
2024-05-09T13:43:58.271Z,25.20
2024-05-09T13:46:30.511Z,25.40
2024-05-09T13:49:03.515Z,25.50
2024-05-09T13:51:35.886Z,25.20
2024-05-09T13:54:08.001Z,25.10
2024-05-09T13:56:41.198Z,25.00
2024-05-09T13:59:13.379Z,25.00
2024-05-09T14:01:45.527Z,25.00
2024-05-09T14:04:18.049Z,25.30
2024-05-09T14:06:50.798Z,25.60
2024-05-09T14:09:23.169Z,25.70
2024-05-09T14:11:55.232Z,25.70
2024-05-09T14:14:27.386Z,25.70
2024-05-09T14:17:00.036Z,25.70
2024-05-09T14:19:32.233Z,25.80
2024-05-09T14:22:06.288Z,25.70
2024-05-09T14:24:38.386Z,25.60
2024-05-09T14:27:10.426Z,25.50
2024-05-09T14:29:42.531Z,25.30
2024-05-09T14:32:15.193Z,24.90
2024-05-09T14:34:47.831Z,24.90
2024-05-09T14:37:20.118Z,25.00
2024-05-09T14:39:52.276Z,25.20
2024-05-09T14:42:24.374Z,25.50
2024-05-09T14:44:56.482Z,25.50
2024-05-09T14:47:29.151Z,25.30
2024-05-09T14:50:02.207Z,25.20
2024-05-09T14:52:34.256Z,25.00
2024-05-09T14:55:08.550Z,25.10
2024-05-09T14:57:42.418Z,25.00
2024-05-09T15:00:21.415Z,25.20
2024-05-09T15:03:00.705Z,25.20
2024-05-09T15:05:32.997Z,25.00
2024-05-09T15:08:08.765Z,25.00
2024-05-09T15:10:41.078Z,25.10
2024-05-09T15:13:16.247Z,25.20
2024-05-09T15:15:49.291Z,25.40
2024-05-09T15:18:21.835Z,25.50
2024-05-09T15:20:54.187Z,25.40
2024-05-09T15:23:26.343Z,25.20
2024-05-09T15:25:58.490Z,25.10
2024-05-09T15:28:31.344Z,25.00
2024-05-09T15:31:03.568Z,24.70
2024-05-09T15:33:35.751Z,24.80
2024-05-09T15:36:08.318Z,24.90
2024-05-09T15:38:40.419Z,24.90
2024-05-09T15:41:13.913Z,25.00
2024-05-09T15:43:45.928Z,25.00
2024-05-09T15:46:18.511Z,25.10
2024-05-09T15:48:51.320Z,25.20
2024-05-09T15:51:23.576Z,25.20
2024-05-09T15:53:55.667Z,25.20
2024-05-09T15:56:27.736Z,25.10
2024-05-09T15:59:00.324Z,25.00
2024-05-09T16:01:32.680Z,24.80
2024-05-09T16:04:05.237Z,24.70
2024-05-09T16:06:37.641Z,24.70
2024-05-09T16:09:09.703Z,24.70
2024-05-09T16:11:41.766Z,24.70
2024-05-09T16:14:13.963Z,24.70
2024-05-09T16:16:46.608Z,24.60
2024-05-09T16:19:18.938Z,24.40
2024-05-09T16:21:51.074Z,24.30
2024-05-09T16:24:23.156Z,24.10
2024-05-09T16:26:55.353Z,24.00
2024-05-09T16:29:27.484Z,23.80
2024-05-09T16:31:59.600Z,23.70
2024-05-09T16:34:31.754Z,23.70
2024-05-09T16:37:06.587Z,23.70
2024-05-09T16:39:38.840Z,23.70
2024-05-09T16:42:11.014Z,23.70
2024-05-09T16:44:43.190Z,23.70
2024-05-09T16:47:15.481Z,23.80
2024-05-09T16:49:47.587Z,23.80
2024-05-09T16:52:19.817Z,23.80
2024-05-09T16:54:52.498Z,23.70
2024-05-09T16:57:24.757Z,23.70
2024-05-09T16:59:56.901Z,23.60
2024-05-09T17:02:30.536Z,23.70
2024-05-09T17:05:02.835Z,23.70
2024-05-09T17:07:35.097Z,23.80
2024-05-09T17:10:12.492Z,23.70
2024-05-09T17:12:51.275Z,23.70
2024-05-09T17:15:23.648Z,23.70
2024-05-09T17:17:56.506Z,23.70
2024-05-09T17:20:33.568Z,23.70
2024-05-09T17:23:13.636Z,23.70
2024-05-09T17:25:46.589Z,23.70
2024-05-09T17:28:19.253Z,23.50
2024-05-09T17:30:51.595Z,23.40
2024-05-09T17:33:23.874Z,23.30
2024-05-09T17:35:56.043Z,23.30
2024-05-09T17:38:28.160Z,23.20
2024-05-09T17:41:00.409Z,23.20
2024-05-09T17:43:32.745Z,23.00
2024-05-09T17:46:07.176Z,22.90
2024-05-09T17:48:39.462Z,22.90
2024-05-09T17:51:13.093Z,23.00
2024-05-09T17:53:45.142Z,22.90
2024-05-09T17:56:17.823Z,22.90
2024-05-09T17:58:49.967Z,22.80
2024-05-09T18:01:23.667Z,22.80
2024-05-09T18:03:56.032Z,22.80
2024-05-09T18:06:28.109Z,22.70
2024-05-09T18:09:00.150Z,22.60
2024-05-09T18:11:32.319Z,22.50
2024-05-09T18:14:04.473Z,22.30
2024-05-09T18:16:36.514Z,22.30
2024-05-09T18:19:08.883Z,22.10
2024-05-09T18:21:41.170Z,22.00
2024-05-09T18:24:13.254Z,21.90
2024-05-09T18:26:45.263Z,21.90
2024-05-09T18:29:19.921Z,21.90
2024-05-09T18:31:53.989Z,21.80
2024-05-09T18:34:26.175Z,21.70
2024-05-09T18:37:00.211Z,21.50
2024-05-09T18:39:33.700Z,21.30
2024-05-09T18:42:05.990Z,21.20
2024-05-09T18:44:38.054Z,21.10
2024-05-09T18:47:10.524Z,21.10
2024-05-09T18:49:42.844Z,21.00
2024-05-09T18:52:15.141Z,20.80
2024-05-09T18:54:47.894Z,20.50
2024-05-09T18:57:20.147Z,20.40
2024-05-09T18:59:52.197Z,20.30
2024-05-09T19:02:24.454Z,20.30
2024-05-09T19:04:56.631Z,20.30
2024-05-09T19:07:28.916Z,20.40
2024-05-09T19:10:01.183Z,20.40
2024-05-09T19:12:33.237Z,20.30
2024-05-09T19:15:05.565Z,20.10
2024-05-09T19:17:37.790Z,20.00
2024-05-09T19:20:20.523Z,19.90
2024-05-09T19:23:00.431Z,19.70
2024-05-09T19:25:33.267Z,19.60
2024-05-09T19:28:05.957Z,19.40
2024-05-09T19:30:41.459Z,19.20
2024-05-09T19:33:15.228Z,18.90
2024-05-09T19:35:48.442Z,18.80
2024-05-09T19:38:21.049Z,18.90
2024-05-09T19:40:53.393Z,18.90
2024-05-09T19:43:26.010Z,18.70
2024-05-09T19:45:58.240Z,18.70
2024-05-09T19:48:30.388Z,18.80
2024-05-09T19:51:03.336Z,18.90
2024-05-09T19:53:35.529Z,18.80
2024-05-09T19:56:07.758Z,18.70
2024-05-09T19:58:40.159Z,18.60
2024-05-09T20:01:12.434Z,18.50
2024-05-09T20:03:44.823Z,18.60
2024-05-09T20:06:17.235Z,18.60
2024-05-09T20:08:49.335Z,18.70
2024-05-09T20:11:21.509Z,18.70
2024-05-09T20:13:53.647Z,18.70
2024-05-09T20:16:25.723Z,18.60
2024-05-09T20:18:58.391Z,18.50
2024-05-09T20:21:30.531Z,18.40
2024-05-09T20:24:02.645Z,18.40
2024-05-09T20:26:34.719Z,18.10
2024-05-09T20:29:06.800Z,18.00
2024-05-09T20:31:39.041Z,18.00
2024-05-09T20:34:11.262Z,18.10
2024-05-09T20:36:43.434Z,18.10
2024-05-09T20:39:15.642Z,18.00
2024-05-09T20:41:47.809Z,18.00
2024-05-09T20:44:20.039Z,18.00
2024-05-09T20:46:52.112Z,17.90
2024-05-09T20:49:24.439Z,17.90
2024-05-09T20:51:57.860Z,17.80
2024-05-09T20:54:30.069Z,17.70
2024-05-09T20:57:03.087Z,17.80
2024-05-09T20:59:35.432Z,17.80
2024-05-09T21:02:07.669Z,17.90
2024-05-09T21:04:40.076Z,18.00
2024-05-09T21:07:12.396Z,17.90
2024-05-09T21:09:44.637Z,17.80
2024-05-09T21:12:17.966Z,17.80
2024-05-09T21:14:50.091Z,17.80
2024-05-09T21:17:22.237Z,17.70
2024-05-09T21:19:54.457Z,17.70
2024-05-09T21:22:26.674Z,17.70
2024-05-09T21:24:58.810Z,17.70
2024-05-09T21:27:31.044Z,17.70
2024-05-09T21:30:04.494Z,17.80
2024-05-09T21:32:38.113Z,17.90
2024-05-09T21:35:10.311Z,18.00
2024-05-09T21:37:42.397Z,18.00
2024-05-09T21:40:24.260Z,18.00
2024-05-09T21:43:04.579Z,18.00
2024-05-09T21:45:37.378Z,17.90
2024-05-09T21:48:13.245Z,17.90
2024-05-09T21:50:45.444Z,17.80
2024-05-09T21:53:18.460Z,17.70
2024-05-09T21:55:50.636Z,17.70
2024-05-09T21:58:23.716Z,17.90
2024-05-09T22:00:55.925Z,17.90
2024-05-09T22:03:28.281Z,17.80
2024-05-09T22:06:00.905Z,17.70
2024-05-09T22:08:36.088Z,17.80
2024-05-09T22:11:08.446Z,17.80
2024-05-09T22:13:40.675Z,17.80
2024-05-09T22:16:12.881Z,17.70
2024-05-09T22:18:45.147Z,17.80
2024-05-09T22:21:17.285Z,17.80
2024-05-09T22:23:49.324Z,17.90
2024-05-09T22:26:21.411Z,18.00
2024-05-09T22:28:53.593Z,18.00
2024-05-09T22:31:25.745Z,18.00
2024-05-09T22:33:58.124Z,18.00
2024-05-09T22:36:30.259Z,17.90
2024-05-09T22:39:02.881Z,18.00
2024-05-09T22:41:34.971Z,18.00
2024-05-09T22:44:07.074Z,17.90
2024-05-09T22:46:39.198Z,18.00
2024-05-09T22:49:11.511Z,18.00
2024-05-09T22:51:43.685Z,18.10
2024-05-09T22:54:15.771Z,18.10
2024-05-09T22:56:47.861Z,18.20
2024-05-09T22:59:19.964Z,18.20
2024-05-09T23:01:52.042Z,18.20
2024-05-09T23:04:24.263Z,18.20
2024-05-09T23:06:56.406Z,18.20
2024-05-09T23:09:28.532Z,18.20
2024-05-09T23:12:00.681Z,18.20
2024-05-09T23:14:33.465Z,18.20
2024-05-09T23:17:12.085Z,18.30
2024-05-09T23:19:44.273Z,18.30
2024-05-09T23:22:16.466Z,18.30
2024-05-09T23:24:48.658Z,18.40
2024-05-09T23:27:20.911Z,18.40
2024-05-09T23:29:53.468Z,18.40
2024-05-09T23:32:25.640Z,18.40
2024-05-09T23:34:57.862Z,18.40
2024-05-09T23:37:30.100Z,18.40
2024-05-09T23:40:03.807Z,18.50
2024-05-09T23:42:41.950Z,18.40
2024-05-09T23:45:14.171Z,18.50
2024-05-09T23:47:46.971Z,18.40
2024-05-09T23:50:26.333Z,18.50
2024-05-09T23:53:06.128Z,18.50
2024-05-09T23:55:39.479Z,18.50
2024-05-09T23:58:12.022Z,18.50
